sensor_id;sensor_type;location;lat;lon;timestamp;temperature;humidity
5176;DHT22;2607;50.934;6.934;2022-07-06T00:01:18;17.50;90.10
5176;DHT22;2607;50.934;6.934;2022-07-06T00:03:44;17.50;90.00
5176;DHT22;2607;50.934;6.934;2022-07-06T00:06:10;17.40;90.10
5176;DHT22;2607;50.934;6.934;2022-07-06T00:08:35;17.30;90.30
5176;DHT22;2607;50.934;6.934;2022-07-06T00:11:01;17.20;90.50
5176;DHT22;2607;50.934;6.934;2022-07-06T00:13:27;17.20;90.70
5176;DHT22;2607;50.934;6.934;2022-07-06T00:15:53;17.20;91.40
5176;DHT22;2607;50.934;6.934;2022-07-06T00:18:19;17.10;91.20
5176;DHT22;2607;50.934;6.934;2022-07-06T00:20:44;17.10;91.50
5176;DHT22;2607;50.934;6.934;2022-07-06T00:23:10;17.00;91.80
5176;DHT22;2607;50.934;6.934;2022-07-06T00:25:36;17.00;91.90
5176;DHT22;2607;50.934;6.934;2022-07-06T00:28:01;17.00;91.90
5176;DHT22;2607;50.934;6.934;2022-07-06T00:30:27;17.00;91.90
5176;DHT22;2607;50.934;6.934;2022-07-06T00:32:53;16.90;91.70
5176;DHT22;2607;50.934;6.934;2022-07-06T00:35:18;16.90;91.70
5176;DHT22;2607;50.934;6.934;2022-07-06T00:37:44;16.90;91.80
5176;DHT22;2607;50.934;6.934;2022-07-06T00:40:10;16.80;91.90
5176;DHT22;2607;50.934;6.934;2022-07-06T00:42:43;16.80;92.00
5176;DHT22;2607;50.934;6.934;2022-07-06T00:45:12;16.70;92.30
5176;DHT22;2607;50.934;6.934;2022-07-06T00:47:39;16.60;92.50
5176;DHT22;2607;50.934;6.934;2022-07-06T00:50:06;16.60;92.60
5176;DHT22;2607;50.934;6.934;2022-07-06T00:52:52;16.60;92.80
5176;DHT22;2607;50.934;6.934;2022-07-06T00:55:21;16.50;93.00
5176;DHT22;2607;50.934;6.934;2022-07-06T00:57:47;16.50;93.20
5176;DHT22;2607;50.934;6.934;2022-07-06T01:00:16;16.40;93.20
5176;DHT22;2607;50.934;6.934;2022-07-06T01:02:42;16.40;93.40
5176;DHT22;2607;50.934;6.934;2022-07-06T01:05:09;16.40;93.50
5176;DHT22;2607;50.934;6.934;2022-07-06T01:07:36;16.40;93.70
5176;DHT22;2607;50.934;6.934;2022-07-06T01:10:05;16.30;93.70
5176;DHT22;2607;50.934;6.934;2022-07-06T01:12:31;16.30;93.70
5176;DHT22;2607;50.934;6.934;2022-07-06T01:14:59;16.30;93.80
5176;DHT22;2607;50.934;6.934;2022-07-06T01:17:26;16.20;93.90
5176;DHT22;2607;50.934;6.934;2022-07-06T01:19:51;16.20;93.90
5176;DHT22;2607;50.934;6.934;2022-07-06T01:22:17;16.20;94.00
5176;DHT22;2607;50.934;6.934;2022-07-06T01:24:43;16.10;94.20
5176;DHT22;2607;50.934;6.934;2022-07-06T01:27:09;16.10;94.30
5176;DHT22;2607;50.934;6.934;2022-07-06T01:29:34;16.10;94.50
5176;DHT22;2607;50.934;6.934;2022-07-06T01:32:01;16.00;94.60
5176;DHT22;2607;50.934;6.934;2022-07-06T01:34:27;16.00;94.90
5176;DHT22;2607;50.934;6.934;2022-07-06T01:36:53;15.90;94.90
5176;DHT22;2607;50.934;6.934;2022-07-06T01:39:19;15.90;95.20
5176;DHT22;2607;50.934;6.934;2022-07-06T01:41:45;15.90;95.30
5176;DHT22;2607;50.934;6.934;2022-07-06T01:44:11;15.90;95.60
5176;DHT22;2607;50.934;6.934;2022-07-06T01:46:36;15.80;95.90
5176;DHT22;2607;50.934;6.934;2022-07-06T01:49:03;15.80;95.80
5176;DHT22;2607;50.934;6.934;2022-07-06T01:51:29;15.80;95.90
5176;DHT22;2607;50.934;6.934;2022-07-06T01:53:54;15.70;95.90
5176;DHT22;2607;50.934;6.934;2022-07-06T01:56:20;15.70;96.30
5176;DHT22;2607;50.934;6.934;2022-07-06T01:58:47;15.60;96.50
5176;DHT22;2607;50.934;6.934;2022-07-06T02:01:15;15.60;96.50
5176;DHT22;2607;50.934;6.934;2022-07-06T02:03:41;15.60;96.50
5176;DHT22;2607;50.934;6.934;2022-07-06T02:06:08;15.50;96.70
5176;DHT22;2607;50.934;6.934;2022-07-06T02:08:34;15.50;96.70
5176;DHT22;2607;50.934;6.934;2022-07-06T02:11:01;15.50;96.90
5176;DHT22;2607;50.934;6.934;2022-07-06T02:13:27;15.50;96.50
5176;DHT22;2607;50.934;6.934;2022-07-06T02:15:52;15.40;96.70
5176;DHT22;2607;50.934;6.934;2022-07-06T02:18:18;15.40;96.60
5176;DHT22;2607;50.934;6.934;2022-07-06T02:20:44;15.40;96.80
5176;DHT22;2607;50.934;6.934;2022-07-06T02:23:09;15.40;96.90
5176;DHT22;2607;50.934;6.934;2022-07-06T02:25:35;15.40;96.90
5176;DHT22;2607;50.934;6.934;2022-07-06T02:28:00;15.30;96.90
5176;DHT22;2607;50.934;6.934;2022-07-06T02:30:26;15.30;97.10
5176;DHT22;2607;50.934;6.934;2022-07-06T02:32:51;15.30;97.20
5176;DHT22;2607;50.934;6.934;2022-07-06T02:35:17;15.20;97.10
5176;DHT22;2607;50.934;6.934;2022-07-06T02:37:43;15.20;97.20
5176;DHT22;2607;50.934;6.934;2022-07-06T02:40:09;15.20;97.20
5176;DHT22;2607;50.934;6.934;2022-07-06T02:42:34;15.20;97.30
5176;DHT22;2607;50.934;6.934;2022-07-06T02:45:00;15.10;97.40
5176;DHT22;2607;50.934;6.934;2022-07-06T02:47:26;15.10;97.60
5176;DHT22;2607;50.934;6.934;2022-07-06T02:49:52;15.10;97.50
5176;DHT22;2607;50.934;6.934;2022-07-06T02:52:18;15.10;97.60
5176;DHT22;2607;50.934;6.934;2022-07-06T02:54:44;15.00;97.80
5176;DHT22;2607;50.934;6.934;2022-07-06T02:57:10;15.00;98.00
5176;DHT22;2607;50.934;6.934;2022-07-06T02:59:35;15.00;98.00
5176;DHT22;2607;50.934;6.934;2022-07-06T03:02:03;14.90;98.30
5176;DHT22;2607;50.934;6.934;2022-07-06T03:04:29;14.90;98.40
5176;DHT22;2607;50.934;6.934;2022-07-06T03:06:54;14.90;98.40
5176;DHT22;2607;50.934;6.934;2022-07-06T03:09:20;14.90;98.80
5176;DHT22;2607;50.934;6.934;2022-07-06T03:11:45;14.80;98.80
5176;DHT22;2607;50.934;6.934;2022-07-06T03:14:11;14.80;99.00
5176;DHT22;2607;50.934;6.934;2022-07-06T03:16:36;14.80;99.10
5176;DHT22;2607;50.934;6.934;2022-07-06T03:19:02;14.80;99.20
5176;DHT22;2607;50.934;6.934;2022-07-06T03:21:28;14.80;99.30
5176;DHT22;2607;50.934;6.934;2022-07-06T03:23:53;14.80;99.30
5176;DHT22;2607;50.934;6.934;2022-07-06T03:26:19;14.70;99.20
5176;DHT22;2607;50.934;6.934;2022-07-06T03:28:44;14.70;99.20
5176;DHT22;2607;50.934;6.934;2022-07-06T03:31:10;14.70;99.20
5176;DHT22;2607;50.934;6.934;2022-07-06T03:33:35;14.70;98.90
5176;DHT22;2607;50.934;6.934;2022-07-06T03:36:01;14.70;99.20
5176;DHT22;2607;50.934;6.934;2022-07-06T03:38:26;14.70;99.30
5176;DHT22;2607;50.934;6.934;2022-07-06T03:40:52;14.70;99.20
5176;DHT22;2607;50.934;6.934;2022-07-06T03:43:17;14.70;99.50
5176;DHT22;2607;50.934;6.934;2022-07-06T03:45:43;14.60;99.60
5176;DHT22;2607;50.934;6.934;2022-07-06T03:48:09;14.60;99.70
5176;DHT22;2607;50.934;6.934;2022-07-06T03:50:35;14.60;99.70
5176;DHT22;2607;50.934;6.934;2022-07-06T03:53:00;14.60;99.90
5176;DHT22;2607;50.934;6.934;2022-07-06T03:55:26;14.50;99.90
5176;DHT22;2607;50.934;6.934;2022-07-06T03:57:52;14.50;99.90
5176;DHT22;2607;50.934;6.934;2022-07-06T04:00:18;14.50;99.90
5176;DHT22;2607;50.934;6.934;2022-07-06T04:02:43;14.50;99.90
5176;DHT22;2607;50.934;6.934;2022-07-06T04:05:09;14.40;99.90
5176;DHT22;2607;50.934;6.934;2022-07-06T04:07:34;14.40;99.90
5176;DHT22;2607;50.934;6.934;2022-07-06T04:10:00;14.40;99.90
5176;DHT22;2607;50.934;6.934;2022-07-06T04:12:25;14.40;99.90
5176;DHT22;2607;50.934;6.934;2022-07-06T04:14:51;14.40;99.90
5176;DHT22;2607;50.934;6.934;2022-07-06T04:17:17;14.40;99.90
5176;DHT22;2607;50.934;6.934;2022-07-06T04:20:00;14.40;99.90
5176;DHT22;2607;50.934;6.934;2022-07-06T04:22:26;14.40;99.90
5176;DHT22;2607;50.934;6.934;2022-07-06T04:24:52;14.40;99.90
5176;DHT22;2607;50.934;6.934;2022-07-06T04:27:17;14.40;99.90
5176;DHT22;2607;50.934;6.934;2022-07-06T04:29:43;14.40;99.90
5176;DHT22;2607;50.934;6.934;2022-07-06T04:32:09;14.40;99.90
5176;DHT22;2607;50.934;6.934;2022-07-06T04:34:34;14.40;99.90
5176;DHT22;2607;50.934;6.934;2022-07-06T04:37:00;14.40;99.90
5176;DHT22;2607;50.934;6.934;2022-07-06T04:39:25;14.40;99.90
5176;DHT22;2607;50.934;6.934;2022-07-06T04:41:51;14.50;99.90
5176;DHT22;2607;50.934;6.934;2022-07-06T04:44:17;14.50;99.90
5176;DHT22;2607;50.934;6.934;2022-07-06T04:46:42;14.50;99.90
5176;DHT22;2607;50.934;6.934;2022-07-06T04:49:08;14.50;99.90
5176;DHT22;2607;50.934;6.934;2022-07-06T04:51:33;14.40;99.90
5176;DHT22;2607;50.934;6.934;2022-07-06T04:53:59;14.40;99.90
5176;DHT22;2607;50.934;6.934;2022-07-06T04:56:24;14.40;99.90
5176;DHT22;2607;50.934;6.934;2022-07-06T04:58:50;14.40;99.90
5176;DHT22;2607;50.934;6.934;2022-07-06T05:01:16;14.40;99.90
5176;DHT22;2607;50.934;6.934;2022-07-06T05:03:42;14.40;99.90
5176;DHT22;2607;50.934;6.934;2022-07-06T05:06:08;14.40;99.90
5176;DHT22;2607;50.934;6.934;2022-07-06T05:08:34;14.40;99.90
5176;DHT22;2607;50.934;6.934;2022-07-06T05:11:00;14.40;99.90
5176;DHT22;2607;50.934;6.934;2022-07-06T05:13:26;14.40;99.90
5176;DHT22;2607;50.934;6.934;2022-07-06T05:15:51;14.50;99.90
5176;DHT22;2607;50.934;6.934;2022-07-06T05:18:17;14.50;99.90
5176;DHT22;2607;50.934;6.934;2022-07-06T05:20:42;14.50;99.90
5176;DHT22;2607;50.934;6.934;2022-07-06T05:23:08;14.50;99.90
5176;DHT22;2607;50.934;6.934;2022-07-06T05:25:34;14.60;99.90
5176;DHT22;2607;50.934;6.934;2022-07-06T05:28:01;14.70;99.90
5176;DHT22;2607;50.934;6.934;2022-07-06T05:30:26;14.70;99.90
5176;DHT22;2607;50.934;6.934;2022-07-06T05:32:52;14.80;99.90
5176;DHT22;2607;50.934;6.934;2022-07-06T05:35:17;14.80;99.90
5176;DHT22;2607;50.934;6.934;2022-07-06T05:37:43;14.80;99.90
5176;DHT22;2607;50.934;6.934;2022-07-06T05:40:09;14.90;99.90
5176;DHT22;2607;50.934;6.934;2022-07-06T05:42:35;15.00;99.90
5176;DHT22;2607;50.934;6.934;2022-07-06T05:45:00;15.00;99.90
5176;DHT22;2607;50.934;6.934;2022-07-06T05:47:26;15.00;99.90
5176;DHT22;2607;50.934;6.934;2022-07-06T05:50:10;15.00;99.90
5176;DHT22;2607;50.934;6.934;2022-07-06T05:52:44;15.10;99.90
5176;DHT22;2607;50.934;6.934;2022-07-06T05:55:11;15.10;99.90
5176;DHT22;2607;50.934;6.934;2022-07-06T05:57:37;15.10;99.90
5176;DHT22;2607;50.934;6.934;2022-07-06T06:00:04;15.20;99.90
5176;DHT22;2607;50.934;6.934;2022-07-06T06:02:40;15.20;99.90
5176;DHT22;2607;50.934;6.934;2022-07-06T06:05:10;15.30;99.90
5176;DHT22;2607;50.934;6.934;2022-07-06T06:07:37;15.40;99.90
5176;DHT22;2607;50.934;6.934;2022-07-06T06:10:05;15.50;99.90
5176;DHT22;2607;50.934;6.934;2022-07-06T06:12:31;15.50;99.90
5176;DHT22;2607;50.934;6.934;2022-07-06T06:14:57;15.60;99.90
5176;DHT22;2607;50.934;6.934;2022-07-06T06:17:22;15.70;99.90
5176;DHT22;2607;50.934;6.934;2022-07-06T06:19:48;15.70;99.90
5176;DHT22;2607;50.934;6.934;2022-07-06T06:22:14;15.80;99.90
5176;DHT22;2607;50.934;6.934;2022-07-06T06:24:39;15.90;99.90
5176;DHT22;2607;50.934;6.934;2022-07-06T06:27:05;16.00;99.90
5176;DHT22;2607;50.934;6.934;2022-07-06T06:29:31;16.00;99.90
5176;DHT22;2607;50.934;6.934;2022-07-06T06:31:56;16.00;99.90
5176;DHT22;2607;50.934;6.934;2022-07-06T06:34:22;16.00;99.90
5176;DHT22;2607;50.934;6.934;2022-07-06T06:36:48;16.10;99.90
5176;DHT22;2607;50.934;6.934;2022-07-06T06:39:14;16.10;99.80
5176;DHT22;2607;50.934;6.934;2022-07-06T06:41:39;16.20;99.50
5176;DHT22;2607;50.934;6.934;2022-07-06T06:44:05;16.20;99.20
5176;DHT22;2607;50.934;6.934;2022-07-06T06:46:30;16.20;99.30
5176;DHT22;2607;50.934;6.934;2022-07-06T06:48:56;16.30;98.90
5176;DHT22;2607;50.934;6.934;2022-07-06T06:51:22;16.30;98.90
5176;DHT22;2607;50.934;6.934;2022-07-06T06:53:47;16.40;99.00
5176;DHT22;2607;50.934;6.934;2022-07-06T06:56:13;16.40;98.90
5176;DHT22;2607;50.934;6.934;2022-07-06T06:58:39;16.50;98.60
5176;DHT22;2607;50.934;6.934;2022-07-06T07:01:04;16.50;98.50
5176;DHT22;2607;50.934;6.934;2022-07-06T07:03:31;16.60;98.50
5176;DHT22;2607;50.934;6.934;2022-07-06T07:05:56;16.60;98.40
5176;DHT22;2607;50.934;6.934;2022-07-06T07:08:22;16.70;98.30
5176;DHT22;2607;50.934;6.934;2022-07-06T07:10:48;16.80;98.00
5176;DHT22;2607;50.934;6.934;2022-07-06T07:13:13;17.00;97.50
5176;DHT22;2607;50.934;6.934;2022-07-06T07:15:39;17.10;97.00
5176;DHT22;2607;50.934;6.934;2022-07-06T07:18:04;17.30;96.70
5176;DHT22;2607;50.934;6.934;2022-07-06T07:20:30;17.40;96.20
5176;DHT22;2607;50.934;6.934;2022-07-06T07:22:57;17.50;95.80
5176;DHT22;2607;50.934;6.934;2022-07-06T07:25:23;17.60;95.60
5176;DHT22;2607;50.934;6.934;2022-07-06T07:27:48;17.70;94.80
5176;DHT22;2607;50.934;6.934;2022-07-06T07:30:14;17.70;95.00
5176;DHT22;2607;50.934;6.934;2022-07-06T07:32:39;17.70;94.60
5176;DHT22;2607;50.934;6.934;2022-07-06T07:35:08;17.80;94.20
5176;DHT22;2607;50.934;6.934;2022-07-06T07:37:34;17.80;94.40
5176;DHT22;2607;50.934;6.934;2022-07-06T07:40:00;17.70;94.50
5176;DHT22;2607;50.934;6.934;2022-07-06T07:42:26;17.80;94.30
5176;DHT22;2607;50.934;6.934;2022-07-06T07:44:52;17.90;94.30
5176;DHT22;2607;50.934;6.934;2022-07-06T07:47:17;18.10;93.60
5176;DHT22;2607;50.934;6.934;2022-07-06T07:49:43;18.20;93.30
5176;DHT22;2607;50.934;6.934;2022-07-06T07:52:10;18.20;93.00
5176;DHT22;2607;50.934;6.934;2022-07-06T07:54:36;18.20;92.40
5176;DHT22;2607;50.934;6.934;2022-07-06T07:57:02;18.20;92.20
5176;DHT22;2607;50.934;6.934;2022-07-06T07:59:28;18.30;91.60
5176;DHT22;2607;50.934;6.934;2022-07-06T08:01:53;18.20;91.60
5176;DHT22;2607;50.934;6.934;2022-07-06T08:04:19;18.20;91.90
5176;DHT22;2607;50.934;6.934;2022-07-06T08:06:44;18.20;91.60
5176;DHT22;2607;50.934;6.934;2022-07-06T08:09:10;18.30;91.50
5176;DHT22;2607;50.934;6.934;2022-07-06T08:11:36;18.20;91.20
5176;DHT22;2607;50.934;6.934;2022-07-06T08:14:03;18.20;91.60
5176;DHT22;2607;50.934;6.934;2022-07-06T08:16:29;18.20;91.70
5176;DHT22;2607;50.934;6.934;2022-07-06T08:18:54;18.20;91.40
5176;DHT22;2607;50.934;6.934;2022-07-06T08:21:20;18.40;91.30
5176;DHT22;2607;50.934;6.934;2022-07-06T08:23:45;18.40;91.00
5176;DHT22;2607;50.934;6.934;2022-07-06T08:26:11;18.60;90.90
5176;DHT22;2607;50.934;6.934;2022-07-06T08:28:37;18.70;90.50
5176;DHT22;2607;50.934;6.934;2022-07-06T08:31:02;18.60;90.70
5176;DHT22;2607;50.934;6.934;2022-07-06T08:33:28;18.60;91.00
5176;DHT22;2607;50.934;6.934;2022-07-06T08:35:54;18.60;91.00
5176;DHT22;2607;50.934;6.934;2022-07-06T08:38:19;18.60;91.00
5176;DHT22;2607;50.934;6.934;2022-07-06T08:40:47;18.60;90.40
5176;DHT22;2607;50.934;6.934;2022-07-06T08:43:15;18.60;90.90
5176;DHT22;2607;50.934;6.934;2022-07-06T08:45:41;18.60;90.50
5176;DHT22;2607;50.934;6.934;2022-07-06T08:48:10;18.60;90.60
5176;DHT22;2607;50.934;6.934;2022-07-06T08:50:37;18.60;90.80
5176;DHT22;2607;50.934;6.934;2022-07-06T08:53:03;18.70;90.60
5176;DHT22;2607;50.934;6.934;2022-07-06T08:55:29;18.60;90.80
5176;DHT22;2607;50.934;6.934;2022-07-06T08:57:56;18.70;90.90
5176;DHT22;2607;50.934;6.934;2022-07-06T09:00:25;18.70;91.00
5176;DHT22;2607;50.934;6.934;2022-07-06T09:02:51;18.70;90.40
5176;DHT22;2607;50.934;6.934;2022-07-06T09:05:21;18.70;90.10
5176;DHT22;2607;50.934;6.934;2022-07-06T09:07:51;18.80;90.10
5176;DHT22;2607;50.934;6.934;2022-07-06T09:10:18;18.80;89.20
5176;DHT22;2607;50.934;6.934;2022-07-06T09:12:44;18.80;88.90
5176;DHT22;2607;50.934;6.934;2022-07-06T09:15:10;18.90;89.00
5176;DHT22;2607;50.934;6.934;2022-07-06T09:17:38;18.90;89.20
5176;DHT22;2607;50.934;6.934;2022-07-06T09:20:07;18.90;89.70
5176;DHT22;2607;50.934;6.934;2022-07-06T09:22:34;18.90;90.00
5176;DHT22;2607;50.934;6.934;2022-07-06T09:25:08;18.90;90.20
5176;DHT22;2607;50.934;6.934;2022-07-06T09:27:43;18.90;90.40
5176;DHT22;2607;50.934;6.934;2022-07-06T09:30:10;18.90;90.20
5176;DHT22;2607;50.934;6.934;2022-07-06T09:32:44;18.90;90.10
5176;DHT22;2607;50.934;6.934;2022-07-06T09:38:13;19.00;89.50
5176;DHT22;2607;50.934;6.934;2022-07-06T09:40:41;19.00;88.60
5176;DHT22;2607;50.934;6.934;2022-07-06T09:43:20;19.00;88.30
5176;DHT22;2607;50.934;6.934;2022-07-06T09:45:55;19.00;88.50
5176;DHT22;2607;50.934;6.934;2022-07-06T09:48:26;19.00;88.80
5176;DHT22;2607;50.934;6.934;2022-07-06T09:50:58;19.00;89.00
5176;DHT22;2607;50.934;6.934;2022-07-06T09:53:26;18.90;88.90
5176;DHT22;2607;50.934;6.934;2022-07-06T09:55:54;18.90;89.40
5176;DHT22;2607;50.934;6.934;2022-07-06T09:58:23;19.00;89.00
5176;DHT22;2607;50.934;6.934;2022-07-06T10:00:49;19.10;89.00
5176;DHT22;2607;50.934;6.934;2022-07-06T10:03:16;19.30;88.10
5176;DHT22;2607;50.934;6.934;2022-07-06T10:05:44;19.40;87.80
5176;DHT22;2607;50.934;6.934;2022-07-06T10:08:12;19.50;86.40
5176;DHT22;2607;50.934;6.934;2022-07-06T10:10:40;19.50;86.10
5176;DHT22;2607;50.934;6.934;2022-07-06T10:13:06;19.60;87.00
5176;DHT22;2607;50.934;6.934;2022-07-06T10:15:34;19.70;87.30
5176;DHT22;2607;50.934;6.934;2022-07-06T10:18:01;19.80;86.50
5176;DHT22;2607;50.934;6.934;2022-07-06T10:20:32;19.80;85.30
5176;DHT22;2607;50.934;6.934;2022-07-06T10:23:00;19.90;86.10
5176;DHT22;2607;50.934;6.934;2022-07-06T10:25:27;19.90;86.00
5176;DHT22;2607;50.934;6.934;2022-07-06T10:27:53;20.00;86.60
5176;DHT22;2607;50.934;6.934;2022-07-06T10:30:20;20.10;86.20
5176;DHT22;2607;50.934;6.934;2022-07-06T10:32:49;20.20;85.80
5176;DHT22;2607;50.934;6.934;2022-07-06T10:35:17;20.30;85.70
5176;DHT22;2607;50.934;6.934;2022-07-06T10:37:44;20.40;84.00
5176;DHT22;2607;50.934;6.934;2022-07-06T10:40:10;20.50;83.20
5176;DHT22;2607;50.934;6.934;2022-07-06T10:42:59;20.50;82.90
5176;DHT22;2607;50.934;6.934;2022-07-06T10:50:46;20.60;81.70
5176;DHT22;2607;50.934;6.934;2022-07-06T10:53:13;20.80;81.50
5176;DHT22;2607;50.934;6.934;2022-07-06T10:55:43;20.70;80.50
5176;DHT22;2607;50.934;6.934;2022-07-06T10:58:09;20.70;78.60
5176;DHT22;2607;50.934;6.934;2022-07-06T11:00:55;20.70;78.30
5176;DHT22;2607;50.934;6.934;2022-07-06T11:03:38;20.80;79.00
5176;DHT22;2607;50.934;6.934;2022-07-06T11:06:21;20.80;78.10
5176;DHT22;2607;50.934;6.934;2022-07-06T11:08:58;20.80;77.90
5176;DHT22;2607;50.934;6.934;2022-07-06T11:16:31;21.10;77.60
5176;DHT22;2607;50.934;6.934;2022-07-06T11:21:51;21.10;76.90
5176;DHT22;2607;50.934;6.934;2022-07-06T11:24:28;21.00;74.20
5176;DHT22;2607;50.934;6.934;2022-07-06T11:26:54;21.00;75.10
5176;DHT22;2607;50.934;6.934;2022-07-06T11:29:22;21.00;74.70
5176;DHT22;2607;50.934;6.934;2022-07-06T11:31:49;21.00;74.00
5176;DHT22;2607;50.934;6.934;2022-07-06T11:34:20;21.10;75.20
5176;DHT22;2607;50.934;6.934;2022-07-06T11:36:46;21.30;75.80
5176;DHT22;2607;50.934;6.934;2022-07-06T11:39:13;21.40;75.10
5176;DHT22;2607;50.934;6.934;2022-07-06T11:41:39;21.50;74.30
5176;DHT22;2607;50.934;6.934;2022-07-06T11:44:04;21.60;74.20
5176;DHT22;2607;50.934;6.934;2022-07-06T11:46:32;21.60;74.80
5176;DHT22;2607;50.934;6.934;2022-07-06T11:49:01;21.70;74.80
5176;DHT22;2607;50.934;6.934;2022-07-06T11:51:28;21.60;73.80
5176;DHT22;2607;50.934;6.934;2022-07-06T11:54:06;21.60;74.10
5176;DHT22;2607;50.934;6.934;2022-07-06T11:56:32;21.60;73.40
5176;DHT22;2607;50.934;6.934;2022-07-06T11:58:59;21.60;73.10
5176;DHT22;2607;50.934;6.934;2022-07-06T12:01:27;21.70;72.60
5176;DHT22;2607;50.934;6.934;2022-07-06T12:03:56;21.60;72.20
5176;DHT22;2607;50.934;6.934;2022-07-06T12:06:23;21.60;72.60
5176;DHT22;2607;50.934;6.934;2022-07-06T12:08:51;21.60;73.30
5176;DHT22;2607;50.934;6.934;2022-07-06T12:11:26;21.70;72.60
5176;DHT22;2607;50.934;6.934;2022-07-06T12:13:53;21.80;72.60
5176;DHT22;2607;50.934;6.934;2022-07-06T12:16:20;22.00;72.30
5176;DHT22;2607;50.934;6.934;2022-07-06T12:18:47;22.20;72.50
5176;DHT22;2607;50.934;6.934;2022-07-06T12:21:15;22.40;72.50
5176;DHT22;2607;50.934;6.934;2022-07-06T12:23:46;22.40;71.40
5176;DHT22;2607;50.934;6.934;2022-07-06T12:26:14;22.60;71.70
5176;DHT22;2607;50.934;6.934;2022-07-06T12:28:41;22.60;71.40
5176;DHT22;2607;50.934;6.934;2022-07-06T12:31:07;22.50;71.00
5176;DHT22;2607;50.934;6.934;2022-07-06T12:33:33;22.60;70.00
5176;DHT22;2607;50.934;6.934;2022-07-06T12:36:15;22.40;70.00
5176;DHT22;2607;50.934;6.934;2022-07-06T12:38:45;22.30;69.80
5176;DHT22;2607;50.934;6.934;2022-07-06T12:41:28;22.30;70.40
5176;DHT22;2607;50.934;6.934;2022-07-06T12:44:07;22.30;69.60
5176;DHT22;2607;50.934;6.934;2022-07-06T12:46:40;22.20;69.20
5176;DHT22;2607;50.934;6.934;2022-07-06T12:49:23;22.30;68.90
5176;DHT22;2607;50.934;6.934;2022-07-06T12:51:53;22.30;68.80
5176;DHT22;2607;50.934;6.934;2022-07-06T12:54:19;22.40;69.20
5176;DHT22;2607;50.934;6.934;2022-07-06T12:59:30;22.50;68.50
5176;DHT22;2607;50.934;6.934;2022-07-06T13:01:57;22.40;68.10
5176;DHT22;2607;50.934;6.934;2022-07-06T13:04:27;22.40;68.10
5176;DHT22;2607;50.934;6.934;2022-07-06T13:06:53;22.40;68.50
5176;DHT22;2607;50.934;6.934;2022-07-06T13:09:19;22.30;68.80
5176;DHT22;2607;50.934;6.934;2022-07-06T13:11:46;22.20;69.30
5176;DHT22;2607;50.934;6.934;2022-07-06T13:14:13;22.30;69.70
5176;DHT22;2607;50.934;6.934;2022-07-06T13:16:39;22.30;69.50
5176;DHT22;2607;50.934;6.934;2022-07-06T13:19:05;22.40;69.30
5176;DHT22;2607;50.934;6.934;2022-07-06T13:21:30;22.40;68.50
5176;DHT22;2607;50.934;6.934;2022-07-06T13:23:56;22.50;68.80
5176;DHT22;2607;50.934;6.934;2022-07-06T13:26:22;22.50;68.80
5176;DHT22;2607;50.934;6.934;2022-07-06T13:28:47;22.60;68.20
5176;DHT22;2607;50.934;6.934;2022-07-06T13:31:13;22.60;68.00
5176;DHT22;2607;50.934;6.934;2022-07-06T13:33:39;22.70;68.10
5176;DHT22;2607;50.934;6.934;2022-07-06T13:36:05;22.70;68.20
5176;DHT22;2607;50.934;6.934;2022-07-06T13:38:30;22.80;67.50
5176;DHT22;2607;50.934;6.934;2022-07-06T13:40:56;22.70;67.60
5176;DHT22;2607;50.934;6.934;2022-07-06T13:43:22;22.70;67.90
5176;DHT22;2607;50.934;6.934;2022-07-06T13:45:48;22.70;67.60
5176;DHT22;2607;50.934;6.934;2022-07-06T13:48:13;22.70;66.70
5176;DHT22;2607;50.934;6.934;2022-07-06T13:50:39;22.70;65.90
5176;DHT22;2607;50.934;6.934;2022-07-06T13:53:05;22.60;65.60
5176;DHT22;2607;50.934;6.934;2022-07-06T13:55:31;22.50;66.20
5176;DHT22;2607;50.934;6.934;2022-07-06T13:57:57;22.40;67.10
5176;DHT22;2607;50.934;6.934;2022-07-06T14:00:23;22.50;67.70
5176;DHT22;2607;50.934;6.934;2022-07-06T14:02:49;22.60;67.20
5176;DHT22;2607;50.934;6.934;2022-07-06T14:05:14;22.60;66.50
5176;DHT22;2607;50.934;6.934;2022-07-06T14:07:40;22.50;66.80
5176;DHT22;2607;50.934;6.934;2022-07-06T14:10:06;22.50;67.30
5176;DHT22;2607;50.934;6.934;2022-07-06T14:12:32;22.60;67.60
5176;DHT22;2607;50.934;6.934;2022-07-06T14:14:57;22.50;67.20
5176;DHT22;2607;50.934;6.934;2022-07-06T14:17:23;22.60;67.00
5176;DHT22;2607;50.934;6.934;2022-07-06T14:19:49;22.70;67.20
5176;DHT22;2607;50.934;6.934;2022-07-06T14:22:15;22.80;67.20
5176;DHT22;2607;50.934;6.934;2022-07-06T14:24:41;22.90;67.10
5176;DHT22;2607;50.934;6.934;2022-07-06T14:27:06;22.90;67.00
5176;DHT22;2607;50.934;6.934;2022-07-06T14:29:32;22.90;67.00
5176;DHT22;2607;50.934;6.934;2022-07-06T14:31:58;22.90;66.10
5176;DHT22;2607;50.934;6.934;2022-07-06T14:34:23;22.90;66.40
5176;DHT22;2607;50.934;6.934;2022-07-06T14:36:50;22.80;66.50
5176;DHT22;2607;50.934;6.934;2022-07-06T14:39:15;22.90;66.20
5176;DHT22;2607;50.934;6.934;2022-07-06T14:41:41;22.80;66.40
5176;DHT22;2607;50.934;6.934;2022-07-06T14:44:06;22.90;66.30
5176;DHT22;2607;50.934;6.934;2022-07-06T14:46:32;22.90;65.70
5176;DHT22;2607;50.934;6.934;2022-07-06T14:49:00;23.00;65.80
5176;DHT22;2607;50.934;6.934;2022-07-06T14:51:25;23.00;65.50
5176;DHT22;2607;50.934;6.934;2022-07-06T14:53:51;22.80;65.10
5176;DHT22;2607;50.934;6.934;2022-07-06T14:56:16;22.70;65.40
5176;DHT22;2607;50.934;6.934;2022-07-06T14:58:42;22.70;65.80
5176;DHT22;2607;50.934;6.934;2022-07-06T15:01:08;22.70;65.80
5176;DHT22;2607;50.934;6.934;2022-07-06T15:03:34;22.70;65.60
5176;DHT22;2607;50.934;6.934;2022-07-06T15:05:59;22.80;65.60
5176;DHT22;2607;50.934;6.934;2022-07-06T15:08:25;22.70;65.40
5176;DHT22;2607;50.934;6.934;2022-07-06T15:10:50;22.60;65.50
5176;DHT22;2607;50.934;6.934;2022-07-06T15:13:16;22.50;66.00
5176;DHT22;2607;50.934;6.934;2022-07-06T15:15:42;22.50;66.10
5176;DHT22;2607;50.934;6.934;2022-07-06T15:18:08;22.50;66.40
5176;DHT22;2607;50.934;6.934;2022-07-06T15:20:34;22.60;66.10
5176;DHT22;2607;50.934;6.934;2022-07-06T15:22:59;22.50;66.30
5176;DHT22;2607;50.934;6.934;2022-07-06T15:25:25;22.50;66.30
5176;DHT22;2607;50.934;6.934;2022-07-06T15:27:51;22.40;66.50
5176;DHT22;2607;50.934;6.934;2022-07-06T15:30:17;22.40;66.70
5176;DHT22;2607;50.934;6.934;2022-07-06T15:32:43;22.50;66.20
5176;DHT22;2607;50.934;6.934;2022-07-06T15:35:08;22.50;66.30
5176;DHT22;2607;50.934;6.934;2022-07-06T15:37:35;22.40;66.40
5176;DHT22;2607;50.934;6.934;2022-07-06T15:40:02;22.40;66.70
5176;DHT22;2607;50.934;6.934;2022-07-06T15:42:28;22.50;66.10
5176;DHT22;2607;50.934;6.934;2022-07-06T15:44:53;22.40;66.20
5176;DHT22;2607;50.934;6.934;2022-07-06T15:47:19;22.40;66.60
5176;DHT22;2607;50.934;6.934;2022-07-06T15:49:46;22.40;66.70
5176;DHT22;2607;50.934;6.934;2022-07-06T15:52:12;22.60;66.20
5176;DHT22;2607;50.934;6.934;2022-07-06T15:54:38;22.70;65.30
5176;DHT22;2607;50.934;6.934;2022-07-06T15:57:04;22.60;65.20
5176;DHT22;2607;50.934;6.934;2022-07-06T15:59:30;22.60;65.40
5176;DHT22;2607;50.934;6.934;2022-07-06T16:01:55;22.60;65.70
5176;DHT22;2607;50.934;6.934;2022-07-06T16:04:21;22.50;65.90
5176;DHT22;2607;50.934;6.934;2022-07-06T16:06:47;22.50;66.10
5176;DHT22;2607;50.934;6.934;2022-07-06T16:09:13;22.50;65.50
5176;DHT22;2607;50.934;6.934;2022-07-06T16:11:39;22.40;65.60
5176;DHT22;2607;50.934;6.934;2022-07-06T16:14:05;22.40;65.60
5176;DHT22;2607;50.934;6.934;2022-07-06T16:16:30;22.40;65.80
5176;DHT22;2607;50.934;6.934;2022-07-06T16:18:56;22.30;65.80